sensor_id;sensor_type;location;lat;lon;timestamp;pressure;altitude;pressure_sealevel;temperature;humidity
48204;BME280;33994;50.998;5.864;2022-08-24T00:00:11;101172.41;;;20.83;74.91
48204;BME280;33994;50.998;5.864;2022-08-24T00:02:57;101173.50;;;20.79;74.95
48204;BME280;33994;50.998;5.864;2022-08-24T00:05:42;101168.66;;;20.70;75.13
48204;BME280;33994;50.998;5.864;2022-08-24T00:08:28;101172.56;;;20.62;75.29
48204;BME280;33994;50.998;5.864;2022-08-24T00:11:15;101168.28;;;20.60;75.41
48204;BME280;33994;50.998;5.864;2022-08-24T00:14:00;101177.97;;;20.61;75.38
48204;BME280;33994;50.998;5.864;2022-08-24T00:16:45;101176.16;;;20.61;75.62
48204;BME280;33994;50.998;5.864;2022-08-24T00:19:31;101184.97;;;20.62;75.44
48204;BME280;33994;50.998;5.864;2022-08-24T00:22:16;101182.41;;;20.60;75.46
48204;BME280;33994;50.998;5.864;2022-08-24T00:25:02;101189.69;;;20.57;75.75
48204;BME280;33994;50.998;5.864;2022-08-24T00:27:48;101183.81;;;20.50;75.86
48204;BME280;33994;50.998;5.864;2022-08-24T00:30:33;101181.16;;;20.50;76.01
48204;BME280;33994;50.998;5.864;2022-08-24T00:33:19;101180.34;;;20.48;75.98
48204;BME280;33994;50.998;5.864;2022-08-24T00:36:05;101190.06;;;20.49;76.18
48204;BME280;33994;50.998;5.864;2022-08-24T00:38:52;101187.41;;;20.49;76.27
48204;BME280;33994;50.998;5.864;2022-08-24T00:41:46;101188.41;;;20.47;76.55
48204;BME280;33994;50.998;5.864;2022-08-24T00:44:33;101186.72;;;20.46;76.39
48204;BME280;33994;50.998;5.864;2022-08-24T00:47:26;101183.25;;;20.44;76.73
48204;BME280;33994;50.998;5.864;2022-08-24T00:50:43;101185.06;;;20.43;77.20
48204;BME280;33994;50.998;5.864;2022-08-24T00:53:32;101186.16;;;20.39;76.81
48204;BME280;33994;50.998;5.864;2022-08-24T00:56:33;101184.59;;;20.35;77.32
48204;BME280;33994;50.998;5.864;2022-08-24T00:59:25;101192.66;;;20.33;77.25
48204;BME280;33994;50.998;5.864;2022-08-24T01:02:17;101191.03;;;20.29;77.46
48204;BME280;33994;50.998;5.864;2022-08-24T01:05:07;101190.34;;;20.26;77.39
48204;BME280;33994;50.998;5.864;2022-08-24T01:07:52;101191.44;;;20.22;77.68
48204;BME280;33994;50.998;5.864;2022-08-24T01:10:47;101184.50;;;20.17;77.86
48204;BME280;33994;50.998;5.864;2022-08-24T01:13:34;101182.91;;;20.15;77.90
48204;BME280;33994;50.998;5.864;2022-08-24T01:16:21;101180.47;;;20.10;77.98
48204;BME280;33994;50.998;5.864;2022-08-24T01:22:33;101191.38;;;20.04;78.92
48204;BME280;33994;50.998;5.864;2022-08-24T01:25:24;101188.88;;;20.01;78.71
48204;BME280;33994;50.998;5.864;2022-08-24T01:28:14;101187.38;;;19.96;78.83
48204;BME280;33994;50.998;5.864;2022-08-24T01:31:01;101185.00;;;19.89;79.04
48204;BME280;33994;50.998;5.864;2022-08-24T01:33:49;101188.84;;;19.84;79.32
48204;BME280;33994;50.998;5.864;2022-08-24T01:36:38;101179.06;;;19.84;79.41
48204;BME280;33994;50.998;5.864;2022-08-24T01:39:29;101184.44;;;19.83;79.69
48204;BME280;33994;50.998;5.864;2022-08-24T01:42:16;101184.53;;;19.81;79.56
48204;BME280;33994;50.998;5.864;2022-08-24T01:45:03;101190.97;;;19.76;79.82
48204;BME280;33994;50.998;5.864;2022-08-24T01:47:48;101194.66;;;19.73;80.04
48204;BME280;33994;50.998;5.864;2022-08-24T01:50:34;101199.97;;;19.73;80.26
48204;BME280;33994;50.998;5.864;2022-08-24T01:53:20;101200.00;;;19.72;80.31
48204;BME280;33994;50.998;5.864;2022-08-24T01:56:05;101204.59;;;19.68;80.53
48204;BME280;33994;50.998;5.864;2022-08-24T01:58:52;101204.75;;;19.65;80.54
48204;BME280;33994;50.998;5.864;2022-08-24T02:01:41;101204.75;;;19.65;80.96
48204;BME280;33994;50.998;5.864;2022-08-24T02:04:27;101199.50;;;19.63;80.77
48204;BME280;33994;50.998;5.864;2022-08-24T02:07:13;101205.75;;;19.62;80.84
48204;BME280;33994;50.998;5.864;2022-08-24T02:09:59;101202.31;;;19.60;80.77
48204;BME280;33994;50.998;5.864;2022-08-24T02:12:46;101201.44;;;19.60;81.08
48204;BME280;33994;50.998;5.864;2022-08-24T02:15:42;101203.38;;;19.56;81.28
48204;BME280;33994;50.998;5.864;2022-08-24T02:18:28;101194.88;;;19.50;81.43
48204;BME280;33994;50.998;5.864;2022-08-24T02:21:14;101199.47;;;19.44;81.62
48204;BME280;33994;50.998;5.864;2022-08-24T02:24:02;101198.69;;;19.42;81.73
48204;BME280;33994;50.998;5.864;2022-08-24T02:26:49;101197.84;;;19.42;81.70
48204;BME280;33994;50.998;5.864;2022-08-24T02:29:34;101203.91;;;19.44;81.67
48204;BME280;33994;50.998;5.864;2022-08-24T02:32:20;101198.84;;;19.39;81.63
48204;BME280;33994;50.998;5.864;2022-08-24T02:35:07;101198.25;;;19.33;81.91
48204;BME280;33994;50.998;5.864;2022-08-24T02:37:53;101197.47;;;19.31;82.05
48204;BME280;33994;50.998;5.864;2022-08-24T02:40:38;101204.56;;;19.30;82.16
48204;BME280;33994;50.998;5.864;2022-08-24T02:43:24;101199.44;;;19.26;82.35
48204;BME280;33994;50.998;5.864;2022-08-24T02:46:19;101187.25;;;19.21;82.65
48204;BME280;33994;50.998;5.864;2022-08-24T02:49:05;101193.50;;;19.20;82.58
48204;BME280;33994;50.998;5.864;2022-08-24T02:51:50;101189.00;;;19.23;82.66
48204;BME280;33994;50.998;5.864;2022-08-24T02:54:38;101192.56;;;19.21;82.61
48204;BME280;33994;50.998;5.864;2022-08-24T02:57:25;101191.78;;;19.19;82.54
48204;BME280;33994;50.998;5.864;2022-08-24T03:00:15;101189.19;;;19.18;82.74
48204;BME280;33994;50.998;5.864;2022-08-24T03:03:08;101195.50;;;19.15;82.68
48204;BME280;33994;50.998;5.864;2022-08-24T03:05:54;101206.97;;;19.16;82.60
48204;BME280;33994;50.998;5.864;2022-08-24T03:08:40;101203.38;;;19.17;82.75
48204;BME280;33994;50.998;5.864;2022-08-24T03:11:25;101206.13;;;19.15;82.73
48204;BME280;33994;50.998;5.864;2022-08-24T03:14:12;101197.22;;;19.16;82.58
48204;BME280;33994;50.998;5.864;2022-08-24T03:16:57;101206.13;;;19.15;82.49
48204;BME280;33994;50.998;5.864;2022-08-24T03:19:43;101207.84;;;19.16;82.45
48204;BME280;33994;50.998;5.864;2022-08-24T03:22:28;101207.03;;;19.14;82.63
48204;BME280;33994;50.998;5.864;2022-08-24T03:25:16;101207.91;;;19.15;82.65
48204;BME280;33994;50.998;5.864;2022-08-24T03:28:03;101209.66;;;19.14;82.66
48204;BME280;33994;50.998;5.864;2022-08-24T03:30:48;101205.38;;;19.12;82.47
48204;BME280;33994;50.998;5.864;2022-08-24T03:33:35;101205.25;;;19.15;82.80
48204;BME280;33994;50.998;5.864;2022-08-24T03:36:20;101200.13;;;19.10;82.83
48204;BME280;33994;50.998;5.864;2022-08-24T03:39:06;101197.66;;;19.07;82.97
48204;BME280;33994;50.998;5.864;2022-08-24T03:41:51;101195.13;;;19.04;83.04
48204;BME280;33994;50.998;5.864;2022-08-24T03:44:37;101194.28;;;19.04;82.97
48204;BME280;33994;50.998;5.864;2022-08-24T03:47:24;101190.94;;;18.99;83.38
48204;BME280;33994;50.998;5.864;2022-08-24T03:50:10;101197.09;;;18.99;83.07
48204;BME280;33994;50.998;5.864;2022-08-24T03:52:55;101191.03;;;18.97;83.21
48204;BME280;33994;50.998;5.864;2022-08-24T03:55:42;101198.16;;;18.95;83.10
48204;BME280;33994;50.998;5.864;2022-08-24T03:58:27;101189.44;;;18.93;83.23
48204;BME280;33994;50.998;5.864;2022-08-24T04:01:14;101194.78;;;18.91;83.07
48204;BME280;33994;50.998;5.864;2022-08-24T04:04:00;101196.66;;;18.89;83.37
48204;BME280;33994;50.998;5.864;2022-08-24T04:06:49;101191.56;;;18.85;83.38
48204;BME280;33994;50.998;5.864;2022-08-24T04:09:34;101188.09;;;18.83;83.65
48204;BME280;33994;50.998;5.864;2022-08-24T04:12:20;101194.56;;;18.77;83.75
48204;BME280;33994;50.998;5.864;2022-08-24T04:15:06;101195.75;;;18.70;83.80
48204;BME280;33994;50.998;5.864;2022-08-24T04:17:53;101188.03;;;18.64;84.14
48204;BME280;33994;50.998;5.864;2022-08-24T04:20:40;101197.78;;;18.63;84.33
48204;BME280;33994;50.998;5.864;2022-08-24T04:23:29;101199.63;;;18.61;84.21
48204;BME280;33994;50.998;5.864;2022-08-24T04:26:18;101210.22;;;18.61;84.38
48204;BME280;33994;50.998;5.864;2022-08-24T04:29:08;101204.97;;;18.60;84.31
48204;BME280;33994;50.998;5.864;2022-08-24T04:31:58;101208.66;;;18.56;84.41
48204;BME280;33994;50.998;5.864;2022-08-24T04:34:44;101200.97;;;18.49;84.41
48204;BME280;33994;50.998;5.864;2022-08-24T04:37:31;101212.69;;;18.44;84.67
48204;BME280;33994;50.998;5.864;2022-08-24T04:40:17;101212.78;;;18.42;84.91
48204;BME280;33994;50.998;5.864;2022-08-24T04:43:05;101215.41;;;18.42;84.90
48204;BME280;33994;50.998;5.864;2022-08-24T04:45:51;101211.88;;;18.42;84.84
48204;BME280;33994;50.998;5.864;2022-08-24T04:48:37;101211.84;;;18.43;84.57
48204;BME280;33994;50.998;5.864;2022-08-24T04:51:23;101214.53;;;18.42;84.77
48204;BME280;33994;50.998;5.864;2022-08-24T04:54:08;101226.13;;;18.39;84.73
48204;BME280;33994;50.998;5.864;2022-08-24T04:56:55;101231.63;;;18.35;85.03
48204;BME280;33994;50.998;5.864;2022-08-24T04:59:40;101228.97;;;18.35;84.84
48204;BME280;33994;50.998;5.864;2022-08-24T05:02:27;101225.28;;;18.39;84.85
48204;BME280;33994;50.998;5.864;2022-08-24T05:05:15;101225.28;;;18.39;84.74
48204;BME280;33994;50.998;5.864;2022-08-24T05:08:01;101225.13;;;18.42;84.70
48204;BME280;33994;50.998;5.864;2022-08-24T05:10:47;101231.09;;;18.47;84.30
48204;BME280;33994;50.998;5.864;2022-08-24T05:13:34;101226.75;;;18.46;84.15
48204;BME280;33994;50.998;5.864;2022-08-24T05:16:21;101243.28;;;18.51;84.05
48204;BME280;33994;50.998;5.864;2022-08-24T05:19:07;101241.38;;;18.55;84.16
48204;BME280;33994;50.998;5.864;2022-08-24T05:21:52;101253.34;;;18.65;83.94
48204;BME280;33994;50.998;5.864;2022-08-24T05:24:38;101251.41;;;18.68;83.42
48204;BME280;33994;50.998;5.864;2022-08-24T05:27:23;101254.75;;;18.74;83.34
48204;BME280;33994;50.998;5.864;2022-08-24T05:30:09;101250.13;;;18.79;83.09
48204;BME280;33994;50.998;5.864;2022-08-24T05:32:55;101257.81;;;18.85;82.83
48204;BME280;33994;50.998;5.864;2022-08-24T05:35:40;101255.81;;;18.90;82.47
48204;BME280;33994;50.998;5.864;2022-08-24T05:38:26;101255.75;;;18.91;82.53
48204;BME280;33994;50.998;5.864;2022-08-24T05:41:13;101249.34;;;18.97;82.66
48204;BME280;33994;50.998;5.864;2022-08-24T05:44:01;101255.16;;;19.05;82.40
48204;BME280;33994;50.998;5.864;2022-08-24T05:46:47;101250.50;;;19.10;82.36
48204;BME280;33994;50.998;5.864;2022-08-24T05:49:32;101254.56;;;19.19;82.16
48204;BME280;33994;50.998;5.864;2022-08-24T05:52:19;101254.16;;;19.28;81.77
48204;BME280;33994;50.998;5.864;2022-08-24T05:55:07;101252.88;;;19.37;81.34
48204;BME280;33994;50.998;5.864;2022-08-24T05:57:53;101258.84;;;19.42;81.08
48204;BME280;33994;50.998;5.864;2022-08-24T06:00:41;101254.94;;;19.51;80.89
48204;BME280;33994;50.998;5.864;2022-08-24T06:03:28;101252.94;;;19.56;80.66
48204;BME280;33994;50.998;5.864;2022-08-24T06:06:15;101248.06;;;19.65;80.23
48204;BME280;33994;50.998;5.864;2022-08-24T06:09:01;101249.22;;;19.79;80.05
48204;BME280;33994;50.998;5.864;2022-08-24T06:11:48;101248.56;;;19.92;79.45
48204;BME280;33994;50.998;5.864;2022-08-24T06:14:35;101260.25;;;20.07;79.13
48204;BME280;33994;50.998;5.864;2022-08-24T06:17:21;101270.28;;;20.20;78.73
48204;BME280;33994;50.998;5.864;2022-08-24T06:20:08;101262.66;;;20.31;78.23
48204;BME280;33994;50.998;5.864;2022-08-24T06:22:54;101253.19;;;20.44;78.00
48204;BME280;33994;50.998;5.864;2022-08-24T06:25:41;101257.91;;;20.56;77.60
48204;BME280;33994;50.998;5.864;2022-08-24T06:28:44;101255.94;;;20.77;76.98
48204;BME280;33994;50.998;5.864;2022-08-24T06:31:29;101261.19;;;20.96;76.07
48204;BME280;33994;50.998;5.864;2022-08-24T06:34:17;101249.47;;;21.18;75.47
48204;BME280;33994;50.998;5.864;2022-08-24T06:37:02;101242.84;;;21.42;75.49
48204;BME280;33994;50.998;5.864;2022-08-24T06:39:48;101244.78;;;21.56;74.87
48204;BME280;33994;50.998;5.864;2022-08-24T06:42:33;101248.13;;;21.59;74.49
48204;BME280;33994;50.998;5.864;2022-08-24T06:45:19;101243.50;;;21.63;74.65
48204;BME280;33994;50.998;5.864;2022-08-24T06:48:05;101252.69;;;21.89;74.68
48204;BME280;33994;50.998;5.864;2022-08-24T06:50:52;101242.25;;;22.18;73.64
48204;BME280;33994;50.998;5.864;2022-08-24T06:53:38;101251.50;;;22.42;72.22
48204;BME280;33994;50.998;5.864;2022-08-24T06:56:25;101252.81;;;22.65;72.08
48204;BME280;33994;50.998;5.864;2022-08-24T06:59:11;101256.91;;;22.87;71.55
48204;BME280;33994;50.998;5.864;2022-08-24T07:01:57;101257.41;;;23.07;70.50
48204;BME280;33994;50.998;5.864;2022-08-24T07:04:45;101261.94;;;23.21;69.79
48204;BME280;33994;50.998;5.864;2022-08-24T07:07:50;101255.09;;;23.31;68.98
48204;BME280;33994;50.998;5.864;2022-08-24T07:10:36;101260.91;;;23.24;68.71
48204;BME280;33994;50.998;5.864;2022-08-24T07:13:22;101268.13;;;23.36;68.78
48204;BME280;33994;50.998;5.864;2022-08-24T07:16:08;101268.19;;;23.50;68.07
48204;BME280;33994;50.998;5.864;2022-08-24T07:18:55;101275.41;;;23.63;67.34
48204;BME280;33994;50.998;5.864;2022-08-24T07:21:42;101274.09;;;23.70;67.08
48204;BME280;33994;50.998;5.864;2022-08-24T07:24:28;101277.03;;;23.65;67.08
48204;BME280;33994;50.998;5.864;2022-08-24T07:27:14;101269.31;;;23.61;67.08
48204;BME280;33994;50.998;5.864;2022-08-24T07:30:00;101273.78;;;23.60;66.96
48204;BME280;33994;50.998;5.864;2022-08-24T07:32:46;101274.28;;;23.67;66.89
48204;BME280;33994;50.998;5.864;2022-08-24T07:35:32;101276.63;;;23.86;66.52
48204;BME280;33994;50.998;5.864;2022-08-24T07:38:19;101279.28;;;24.00;65.88
48204;BME280;33994;50.998;5.864;2022-08-24T07:41:05;101280.34;;;24.12;65.40
48204;BME280;33994;50.998;5.864;2022-08-24T07:43:52;101286.59;;;24.25;64.96
48204;BME280;33994;50.998;5.864;2022-08-24T07:46:39;101284.28;;;24.33;64.70
48204;BME280;33994;50.998;5.864;2022-08-24T07:49:26;101289.03;;;24.42;64.18
48204;BME280;33994;50.998;5.864;2022-08-24T07:52:11;101289.56;;;24.47;63.56
48204;BME280;33994;50.998;5.864;2022-08-24T07:54:57;101289.94;;;24.56;63.45
48204;BME280;33994;50.998;5.864;2022-08-24T07:57:42;101282.25;;;24.64;62.91
48204;BME280;33994;50.998;5.864;2022-08-24T08:00:29;101292.66;;;24.68;62.77
48204;BME280;33994;50.998;5.864;2022-08-24T08:03:18;101294.03;;;24.74;62.29
48204;BME280;33994;50.998;5.864;2022-08-24T08:06:07;101288.56;;;24.63;62.30
48204;BME280;33994;50.998;5.864;2022-08-24T08:08:52;101298.13;;;24.52;63.00
48204;BME280;33994;50.998;5.864;2022-08-24T08:11:38;101304.25;;;24.55;62.49
48204;BME280;33994;50.998;5.864;2022-08-24T08:14:23;101302.34;;;24.57;62.88
48204;BME280;33994;50.998;5.864;2022-08-24T08:17:09;101304.06;;;24.58;63.15
48204;BME280;33994;50.998;5.864;2022-08-24T08:19:56;101308.09;;;24.50;63.16
48204;BME280;33994;50.998;5.864;2022-08-24T08:22:41;101317.75;;;24.53;63.39
48204;BME280;33994;50.998;5.864;2022-08-24T08:26:04;101312.63;;;24.63;63.46
48204;BME280;33994;50.998;5.864;2022-08-24T08:29:00;101316.81;;;24.67;62.34
48204;BME280;33994;50.998;5.864;2022-08-24T08:31:47;101323.13;;;24.66;62.03
48204;BME280;33994;50.998;5.864;2022-08-24T08:34:33;101320.34;;;24.67;61.93
48204;BME280;33994;50.998;5.864;2022-08-24T08:37:19;101308.59;;;24.70;61.08
48204;BME280;33994;50.998;5.864;2022-08-24T08:40:12;101312.66;;;24.75;61.33
48204;BME280;33994;50.998;5.864;2022-08-24T08:43:09;101320.44;;;24.80;61.13
48204;BME280;33994;50.998;5.864;2022-08-24T08:59:06;101308.91;;;24.92;61.23
48204;BME280;33994;50.998;5.864;2022-08-24T09:11:44;101311.19;;;25.11;59.54
48204;BME280;33994;50.998;5.864;2022-08-24T09:14:50;101311.63;;;25.18;60.10
48204;BME280;33994;50.998;5.864;2022-08-24T09:18:11;101304.84;;;25.25;59.70
48204;BME280;33994;50.998;5.864;2022-08-24T09:21:26;101301.13;;;25.28;59.72
48204;BME280;33994;50.998;5.864;2022-08-24T09:34:17;101296.34;;;25.45;56.79
48204;BME280;33994;50.998;5.864;2022-08-24T09:40:40;101294.72;;;25.56;56.30
48204;BME280;33994;50.998;5.864;2022-08-24T09:59:37;101294.38;;;25.73;54.83
48204;BME280;33994;50.998;5.864;2022-08-24T10:08:47;101279.13;;;25.86;53.40
48204;BME280;33994;50.998;5.864;2022-08-24T10:23:56;101265.94;;;26.33;49.29
48204;BME280;33994;50.998;5.864;2022-08-24T10:30:05;101269.88;;;26.40;48.15
48204;BME280;33994;50.998;5.864;2022-08-24T10:33:49;101265.59;;;26.37;48.10
48204;BME280;33994;50.998;5.864;2022-08-24T10:39:21;101253.91;;;26.38;48.41
48204;BME280;33994;50.998;5.864;2022-08-24T10:48:38;101244.94;;;26.51;47.84
48204;BME280;33994;50.998;5.864;2022-08-24T10:51:42;101239.81;;;26.59;47.64
48204;BME280;33994;50.998;5.864;2022-08-24T10:54:36;101240.44;;;26.62;47.83
48204;BME280;33994;50.998;5.864;2022-08-24T10:57:56;101249.25;;;26.64;47.86
48204;BME280;33994;50.998;5.864;2022-08-24T11:00:34;101242.31;;;26.73;47.85
48204;BME280;33994;50.998;5.864;2022-08-24T11:03:20;101236.63;;;26.78;47.49
48204;BME280;33994;50.998;5.864;2022-08-24T11:06:14;101238.47;;;26.77;47.22
48204;BME280;33994;50.998;5.864;2022-08-24T11:09:07;101233.63;;;26.82;47.14
48204;BME280;33994;50.998;5.864;2022-08-24T11:11:52;101230.09;;;26.82;47.25
48204;BME280;33994;50.998;5.864;2022-08-24T11:14:37;101229.81;;;26.85;47.07
48204;BME280;33994;50.998;5.864;2022-08-24T11:17:25;101230.56;;;26.87;46.57
48204;BME280;33994;50.998;5.864;2022-08-24T11:20:41;101228.50;;;26.90;46.38
48204;BME280;33994;50.998;5.864;2022-08-24T11:23:34;101224.84;;;26.91;46.21
48204;BME280;33994;50.998;5.864;2022-08-24T11:26:21;101227.53;;;26.91;45.97
48204;BME280;33994;50.998;5.864;2022-08-24T11:29:06;101217.41;;;26.95;45.91
48204;BME280;33994;50.998;5.864;2022-08-24T11:31:52;101213.66;;;26.98;46.02
48204;BME280;33994;50.998;5.864;2022-08-24T11:34:37;101218.16;;;26.97;45.96
48204;BME280;33994;50.998;5.864;2022-08-24T11:37:34;101213.66;;;26.98;45.59
48204;BME280;33994;50.998;5.864;2022-08-24T11:40:26;101208.00;;;27.01;45.85
48204;BME280;33994;50.998;5.864;2022-08-24T11:43:54;101210.84;;;26.99;45.75
48204;BME280;33994;50.998;5.864;2022-08-24T11:46:52;101202.66;;;27.01;45.42
48204;BME280;33994;50.998;5.864;2022-08-24T11:55:54;101192.81;;;27.12;45.04
48204;BME280;33994;50.998;5.864;2022-08-24T11:58:52;101197.06;;;27.15;45.29
48204;BME280;33994;50.998;5.864;2022-08-24T12:01:46;101195.50;;;27.12;44.42
48204;BME280;33994;50.998;5.864;2022-08-24T12:08:08;101194.97;;;27.18;43.75
48204;BME280;33994;50.998;5.864;2022-08-24T12:13:56;101188.53;;;27.21;43.96
48204;BME280;33994;50.998;5.864;2022-08-24T12:16:56;101185.94;;;27.19;44.46
48204;BME280;33994;50.998;5.864;2022-08-24T12:19:58;101181.47;;;27.20;43.70
48204;BME280;33994;50.998;5.864;2022-08-24T12:22:44;101181.47;;;27.20;44.20
48204;BME280;33994;50.998;5.864;2022-08-24T12:25:31;101176.56;;;27.25;43.99
48204;BME280;33994;50.998;5.864;2022-08-24T12:28:45;101170.94;;;27.28;43.75
48204;BME280;33994;50.998;5.864;2022-08-24T12:31:43;101177.03;;;27.30;43.27
48204;BME280;33994;50.998;5.864;2022-08-24T12:37:24;101177.03;;;27.30;43.05
48204;BME280;33994;50.998;5.864;2022-08-24T12:43:34;101175.13;;;27.44;43.25
48204;BME280;33994;50.998;5.864;2022-08-24T12:46:24;101176.69;;;27.46;43.25
48204;BME280;33994;50.998;5.864;2022-08-24T12:49:20;101174.13;;;27.45;42.89
48204;BME280;33994;50.998;5.864;2022-08-24T12:58:04;101178.06;;;27.40;43.15
48204;BME280;33994;50.998;5.864;2022-08-24T13:00:53;101177.19;;;27.40;43.22
48204;BME280;33994;50.998;5.864;2022-08-24T13:03:41;101172.06;;;27.37;43.24
48204;BME280;33994;50.998;5.864;2022-08-24T13:06:37;101174.84;;;27.35;42.59
48204;BME280;33994;50.998;5.864;2022-08-24T13:20:54;101161.47;;;27.47;42.90
48204;BME280;33994;50.998;5.864;2022-08-24T13:23:39;101160.47;;;27.48;43.05
48204;BME280;33994;50.998;5.864;2022-08-24T13:26:25;101159.72;;;27.46;43.05
48204;BME280;33994;50.998;5.864;2022-08-24T13:29:13;101155.19;;;27.46;42.39
48204;BME280;33994;50.998;5.864;2022-08-24T13:32:00;101156.94;;;27.47;42.38
48204;BME280;33994;50.998;5.864;2022-08-24T13:34:47;101157.78;;;27.48;42.22
48204;BME280;33994;50.998;5.864;2022-08-24T13:37:34;101151.44;;;27.49;42.13
48204;BME280;33994;50.998;5.864;2022-08-24T13:40:21;101154.09;;;27.49;42.07
48204;BME280;33994;50.998;5.864;2022-08-24T13:43:37;101153.97;;;27.50;41.95
48204;BME280;33994;50.998;5.864;2022-08-24T13:46:50;101144.81;;;27.53;42.13
48204;BME280;33994;50.998;5.864;2022-08-24T13:49:49;101142.34;;;27.61;42.19
48204;BME280;33994;50.998;5.864;2022-08-24T13:59:16;101137.59;;;27.64;41.82
48204;BME280;33994;50.998;5.864;2022-08-24T14:05:16;101130.88;;;27.70;41.34
48204;BME280;33994;50.998;5.864;2022-08-24T14:11:53;101129.75;;;27.73;41.78
48204;BME280;33994;50.998;5.864;2022-08-24T14:14:56;101125.50;;;27.70;41.40
48204;BME280;33994;50.998;5.864;2022-08-24T14:18:13;101128.91;;;27.72;41.11
48204;BME280;33994;50.998;5.864;2022-08-24T14:21:12;101123.13;;;27.77;41.89
48204;BME280;33994;50.998;5.864;2022-08-24T14:24:04;101118.66;;;27.77;41.44
48204;BME280;33994;50.998;5.864;2022-08-24T14:27:00;101123.50;;;27.83;41.21
48204;BME280;33994;50.998;5.864;2022-08-24T14:29:46;101126.19;;;27.83;41.50
48204;BME280;33994;50.998;5.864;2022-08-24T14:32:36;101120.19;;;27.80;41.34
48204;BME280;33994;50.998;5.864;2022-08-24T14:41:55;101110.06;;;27.83;41.08
48204;BME280;33994;50.998;5.864;2022-08-24T14:44:54;101107.31;;;27.95;40.88
48204;BME280;33994;50.998;5.864;2022-08-24T15:00:32;101096.13;;;27.89;40.98
48204;BME280;33994;50.998;5.864;2022-08-24T15:09:34;101096.09;;;28.01;40.29
48204;BME280;33994;50.998;5.864;2022-08-24T15:12:35;101081.41;;;28.05;40.50
48204;BME280;33994;50.998;5.864;2022-08-24T15:15:29;101080.69;;;28.03;40.54
48204;BME280;33994;50.998;5.864;2022-08-24T15:24:03;101071.84;;;28.12;40.35
48204;BME280;33994;50.998;5.864;2022-08-24T15:27:17;101065.03;;;28.08;40.11
48204;BME280;33994;50.998;5.864;2022-08-24T15:30:15;101061.47;;;28.07;40.33
48204;BME280;33994;50.998;5.864;2022-08-24T15:38:50;101053.72;;;28.14;40.30
48204;BME280;33994;50.998;5.864;2022-08-24T15:41:38;101059.84;;;28.16;40.13
48204;BME280;33994;50.998;5.864;2022-08-24T15:44:29;101055.31;;;28.17;40.04
48204;BME280;33994;50.998;5.864;2022-08-24T15:47:28;101058.13;;;28.15;39.83
48204;BME280;33994;50.998;5.864;2022-08-24T15:50:23;101052.97;;;28.23;39.50
48204;BME280;33994;50.998;5.864;2022-08-24T15:53:32;101049.88;;;28.28;39.37
48204;BME280;33994;50.998;5.864;2022-08-24T15:59:10;101046.34;;;28.27;39.65
48204;BME280;33994;50.998;5.864;2022-08-24T16:02:43;101051.56;;;28.29;39.89
48204;BME280;33994;50.998;5.864;2022-08-24T16:08:11;101055.25;;;28.28;39.53
48204;BME280;33994;50.998;5.864;2022-08-24T16:11:17;101048.53;;;28.22;39.33
48204;BME280;33994;50.998;5.864;2022-08-24T16:14:13;101045.41;;;28.17;39.14
48204;BME280;33994;50.998;5.864;2022-08-24T16:17:18;101045.28;;;28.19;39.00
48204;BME280;33994;50.998;5.864;2022-08-24T16:20:27;101054.22;;;28.19;39.22
48204;BME280;33994;50.998;5.864;2022-08-24T16:23:25;101056.34;;;28.25;38.69
48204;BME280;33994;50.998;5.864;2022-08-24T16:26:27;101053.56;;;28.27;39.32
48204;BME280;33994;50.998;5.864;2022-08-24T16:29:42;101041.91;;;28.26;38.91
48204;BME280;33994;50.998;5.864;2022-08-24T16:32:29;101045.09;;;28.31;39.54
48204;BME280;33994;50.998;5.864;2022-08-24T16:35:22;101044.81;;;28.34;38.46
48204;BME280;33994;50.998;5.864;2022-08-24T16:38:07;101043.09;;;28.33;38.35
48204;BME280;33994;50.998;5.864;2022-08-24T16:40:56;101034.31;;;28.31;38.43
48204;BME280;33994;50.998;5.864;2022-08-24T16:43:42;101042.66;;;28.28;38.50
48204;BME280;33994;50.998;5.864;2022-08-24T16:46:28;101038.56;;;28.34;38.51
48204;BME280;33994;50.998;5.864;2022-08-24T16:49:14;101043.56;;;28.38;38.70
48204;BME280;33994;50.998;5.864;2022-08-24T16:52:00;101035.50;;;28.38;38.41
48204;BME280;33994;50.998;5.864;2022-08-24T16:54:46;101042.69;;;28.38;38.63
48204;BME280;33994;50.998;5.864;2022-08-24T16:57:33;101041.31;;;28.44;38.51
48204;BME280;33994;50.998;5.864;2022-08-24T17:00:20;101039.47;;;28.44;38.57
48204;BME280;33994;50.998;5.864;2022-08-24T17:03:06;101040.06;;;28.48;38.79
48204;BME280;33994;50.998;5.864;2022-08-24T17:05:51;101036.38;;;28.49;38.57
48204;BME280;33994;50.998;5.864;2022-08-24T17:08:37;101037.22;;;28.49;38.77
48204;BME280;33994;50.998;5.864;2022-08-24T17:11:23;101038.50;;;28.45;38.67
48204;BME280;33994;50.998;5.864;2022-08-24T17:14:10;101039.63;;;28.43;38.49
48204;BME280;33994;50.998;5.864;2022-08-24T17:16:57;101041.47;;;28.42;39.07
48204;BME280;33994;50.998;5.864;2022-08-24T17:19:43;101037.19;;;28.39;38.74
48204;BME280;33994;50.998;5.864;2022-08-24T17:22:28;101042.56;;;28.39;38.70
48204;BME280;33994;50.998;5.864;2022-08-24T17:25:14;101040.59;;;28.42;38.17
48204;BME280;33994;50.998;5.864;2022-08-24T17:28:00;101038.78;;;28.42;38.42
48204;BME280;33994;50.998;5.864;2022-08-24T17:30:48;101040.88;;;28.38;38.55
48204;BME280;33994;50.998;5.864;2022-08-24T17:33:34;101037.19;;;28.39;38.89
48204;BME280;33994;50.998;5.864;2022-08-24T17:36:20;101045.28;;;28.39;38.73
48204;BME280;33994;50.998;5.864;2022-08-24T17:39:06;101050.66;;;28.39;39.40
48204;BME280;33994;50.998;5.864;2022-08-24T17:41:54;101046.25;;;28.38;39.25
48204;BME280;33994;50.998;5.864;2022-08-24T17:44:41;101050.19;;;28.34;39.65
48204;BME280;33994;50.998;5.864;2022-08-24T17:47:27;101053.41;;;28.28;39.85